Time;durP1;ratioP1;P1;durP2;ratioP2;P2;SDS_P1;SDS_P2;PMS_P1;PMS_P2;Temp;Humidity;BMP_temperature;BMP_pressure;BME280_temperature;BME280_humidity;BME280_pressure;Samples;Min_cycle;Max_cycle;Signal;HPM_P1;HPM_P2
2024/01/06 00:00:23;;;;;;;2.17;1.57;;;;;18.10;99096.00;;;;2080350;28;20215;-64
2024/01/06 00:01:23;;;;;;;2.63;1.50;;;;;18.10;99102.00;;;;2077845;28;20268;-64
2024/01/06 00:02:24;;;;;;;2.27;1.30;;;;;18.10;99110.00;;;;2070632;28;20258;-64
2024/01/06 00:03:24;;;;;;;2.00;1.00;;;;;18.10;99106.00;;;;2080193;28;20220;-64
2024/01/06 00:04:24;;;;;;;3.03;1.60;;;;;18.10;99106.00;;;;2078387;28;20224;-64
2024/01/06 00:05:25;;;;;;;1.70;1.00;;;;;18.10;99108.00;;;;2073874;28;20304;-64
2024/01/06 00:06:25;;;;;;;2.50;1.57;;;;;18.10;99105.00;;;;2078441;28;20218;-64
2024/01/06 00:07:25;;;;;;;2.00;1.23;;;;;18.10;99113.00;;;;2063374;28;20232;-64
2024/01/06 00:08:26;;;;;;;1.90;1.10;;;;;18.10;99107.00;;;;2077882;28;20225;-64
2024/01/06 00:09:26;;;;;;;2.00;1.40;;;;;18.10;99107.00;;;;2079378;28;20258;-64
2024/01/06 00:10:26;;;;;;;1.73;1.10;;;;;18.10;99107.00;;;;2079855;28;20224;-64
2024/01/06 00:11:26;;;;;;;2.73;1.20;;;;;18.00;99110.00;;;;2075997;28;20271;-64
2024/01/06 00:12:27;;;;;;;1.90;1.17;;;;;18.10;99106.00;;;;2063857;28;20260;-64
2024/01/06 00:13:27;;;;;;;1.90;1.20;;;;;18.10;99112.00;;;;2078519;28;20227;-64
2024/01/06 00:14:27;;;;;;;1.97;1.33;;;;;18.10;99111.00;;;;2079208;28;20215;-64
2024/01/06 00:15:28;;;;;;;2.47;1.40;;;;;18.10;99111.00;;;;2080133;28;20246;-64
2024/01/06 00:16:28;;;;;;;1.77;1.10;;;;;18.10;99110.00;;;;2078797;28;20217;-64
2024/01/06 00:17:28;;;;;;;2.00;1.30;;;;;18.00;99114.00;;;;2062214;28;20248;-64
2024/01/06 00:18:29;;;;;;;2.80;1.30;;;;;18.00;99119.00;;;;2076168;28;20265;-64
2024/01/06 00:19:29;;;;;;;2.10;1.20;;;;;18.00;99120.00;;;;2071852;28;20305;-64
2024/01/06 00:20:30;;;;;;;2.00;1.10;;;;;18.00;99116.00;;;;2078825;28;20216;-64
2024/01/06 00:21:30;;;;;;;2.70;1.60;;;;;18.10;99119.00;;;;2074933;28;20227;-64
2024/01/06 00:22:30;;;;;;;2.13;1.50;;;;;18.00;99119.00;;;;2063084;28;20249;-64
2024/01/06 00:23:31;;;;;;;2.17;1.60;;;;;18.10;99117.00;;;;2073340;28;20235;-64
2024/01/06 00:24:31;;;;;;;1.70;1.20;;;;;18.10;99115.00;;;;2072900;28;20247;-64
2024/01/06 00:25:31;;;;;;;2.20;1.27;;;;;18.00;99123.00;;;;2077094;28;20711;-64
2024/01/06 00:26:32;;;;;;;1.70;1.10;;;;;18.00;99120.00;;;;2070736;28;20692;-64
2024/01/06 00:27:32;;;;;;;2.73;1.33;;;;;18.00;99120.00;;;;2073296;28;20211;-64
2024/01/06 00:28:32;;;;;;;2.17;1.20;;;;;18.00;99126.00;;;;2078269;28;20218;-64
2024/01/06 00:29:33;;;;;;;2.13;1.40;;;;;18.10;99131.00;;;;2081884;28;20294;-64
2024/01/06 00:30:33;;;;;;;1.67;1.30;;;;;18.00;99132.00;;;;2076103;28;20588;-64
2024/01/06 00:31:33;;;;;;;2.67;1.50;;;;;18.00;99129.00;;;;2079997;28;20216;-64
2024/01/06 00:32:34;;;;;;;2.70;1.20;;;;;18.00;99132.00;;;;2065305;28;20279;-64
2024/01/06 00:33:34;;;;;;;1.67;1.10;;;;;18.00;99084.00;;;;2079741;28;20225;-64
2024/01/06 00:34:34;;;;;;;1.67;1.13;;;;;18.00;99131.00;;;;2071166;28;20380;-64
2024/01/06 00:35:35;;;;;;;1.87;1.20;;;;;18.00;99128.00;;;;2079165;28;20617;-64
2024/01/06 00:36:35;;;;;;;1.60;1.00;;;;;18.00;99135.00;;;;2071213;28;20223;-64
2024/01/06 00:37:35;;;;;;;2.40;1.50;;;;;18.00;99139.00;;;;2068752;28;20222;-64
2024/01/06 00:38:36;;;;;;;1.63;1.10;;;;;18.00;99132.00;;;;2076975;28;20228;-64
2024/01/06 00:39:36;;;;;;;2.13;1.50;;;;;18.00;99139.00;;;;2078655;28;20212;-64
2024/01/06 00:40:37;;;;;;;2.30;1.70;;;;;18.00;99136.00;;;;2080033;28;20215;-64
2024/01/06 00:41:37;;;;;;;2.50;1.90;;;;;18.00;99141.00;;;;2079814;28;20322;-65
2024/01/06 00:42:37;;;;;;;2.17;1.40;;;;;18.00;99137.00;;;;2067046;28;20218;-65
2024/01/06 00:43:38;;;;;;;2.60;1.47;;;;;18.00;99147.00;;;;2079631;28;20356;-65
2024/01/06 00:44:38;;;;;;;2.40;1.40;;;;;18.00;99145.00;;;;2076235;28;20219;-65
2024/01/06 00:45:38;;;;;;;1.77;1.20;;;;;18.00;99143.00;;;;2066941;28;20221;-65
2024/01/06 00:46:39;;;;;;;2.03;1.40;;;;;18.00;99150.00;;;;2078812;28;20301;-65
2024/01/06 00:47:39;;;;;;;2.43;1.40;;;;;18.00;99146.00;;;;2066636;28;20297;-65
2024/01/06 00:48:40;;;;;;;1.80;1.30;;;;;18.00;99151.00;;;;2079267;28;20220;-65
2024/01/06 00:49:40;;;;;;;2.53;1.23;;;;;18.00;99147.00;;;;2086800;28;20218;-65
2024/01/06 00:50:40;;;;;;;2.90;1.73;;;;;18.00;99145.00;;;;2080286;28;20224;-65
2024/01/06 00:51:41;;;;;;;2.20;1.30;;;;;18.00;99147.00;;;;2078882;28;20220;-65
2024/01/06 00:52:41;;;;;;;1.80;1.20;;;;;18.00;99146.00;;;;2062479;28;20706;-65
2024/01/06 00:53:41;;;;;;;2.90;1.77;;;;;18.00;99152.00;;;;2078735;28;20242;-65
2024/01/06 00:54:42;;;;;;;2.40;1.70;;;;;18.00;99149.00;;;;2071864;28;20214;-65
2024/01/06 00:55:42;;;;;;;1.63;1.00;;;;;18.00;99147.00;;;;2070733;28;20220;-65
2024/01/06 00:56:43;;;;;;;1.97;1.20;;;;;18.00;99145.00;;;;2076231;28;20671;-65
2024/01/06 00:57:43;;;;;;;2.10;1.40;;;;;17.90;99144.00;;;;2062421;28;20214;-65
2024/01/06 00:58:43;;;;;;;2.07;1.40;;;;;18.00;99147.00;;;;2078985;28;20231;-65
2024/01/06 00:59:44;;;;;;;2.20;1.30;;;;;18.00;99144.00;;;;2079793;28;20229;-65
2024/01/06 01:00:44;;;;;;;2.27;1.60;;;;;18.00;99152.00;;;;2077928;28;20257;-65
2024/01/06 01:01:44;;;;;;;2.40;1.60;;;;;18.00;99160.00;;;;2077794;28;20540;-65
2024/01/06 01:02:45;;;;;;;2.37;1.40;;;;;18.00;99146.00;;;;2062648;28;20262;-65
2024/01/06 01:03:45;;;;;;;2.50;1.30;;;;;18.00;99146.00;;;;2079546;28;20271;-65
2024/01/06 01:04:45;;;;;;;2.30;1.53;;;;;17.90;99145.00;;;;2074396;28;20544;-65
2024/01/06 01:05:45;;;;;;;1.87;1.30;;;;;18.00;99148.00;;;;2070834;28;20622;-65
2024/01/06 01:06:46;;;;;;;2.00;1.30;;;;;17.90;99147.00;;;;2079033;28;20666;-65
2024/01/06 01:07:46;;;;;;;2.90;1.33;;;;;18.00;99144.00;;;;2069253;28;20794;-65
2024/01/06 01:08:46;;;;;;;2.00;1.37;;;;;18.00;99151.00;;;;2078418;28;20223;-65
2024/01/06 01:09:47;;;;;;;2.10;1.37;;;;;18.00;99144.00;;;;2076751;28;21870;-65
2024/01/06 01:10:47;;;;;;;2.17;1.57;;;;;18.00;99145.00;;;;2072156;28;20208;-65
2024/01/06 01:11:47;;;;;;;2.07;1.47;;;;;17.90;99142.00;;;;2078086;28;20238;-65
2024/01/06 01:12:48;;;;;;;2.53;1.73;;;;;17.90;99141.00;;;;2062855;28;20238;-65
2024/01/06 01:13:48;;;;;;;2.00;1.30;;;;;17.90;99143.00;;;;2078882;28;20210;-65
2024/01/06 01:14:49;;;;;;;2.37;1.37;;;;;17.90;99140.00;;;;2079138;28;20207;-65
2024/01/06 01:15:49;;;;;;;2.60;1.50;;;;;17.90;99142.00;;;;2069753;28;20662;-65
2024/01/06 01:16:50;;;;;;;2.10;1.40;;;;;17.90;99141.00;;;;2077348;28;20511;-65
2024/01/06 01:17:50;;;;;;;1.90;1.30;;;;;17.90;99146.00;;;;2062074;28;20207;-65
2024/01/06 01:18:50;;;;;;;2.13;1.63;;;;;17.90;99144.00;;;;2077475;28;20303;-65
2024/01/06 01:19:51;;;;;;;2.60;1.60;;;;;17.90;99143.00;;;;2070801;28;20210;-65
2024/01/06 01:20:51;;;;;;;1.60;1.20;;;;;17.90;99147.00;;;;2077794;28;20207;-65
2024/01/06 01:21:55;;;;;;;2.53;1.43;;;;;17.90;99147.00;;;;2078401;28;20265;-65
2024/01/06 01:22:55;;;;;;;2.38;1.40;;;;;17.90;99154.00;;;;2068556;28;20248;-65
2024/01/06 01:23:55;;;;;;;2.20;1.60;;;;;17.90;99148.00;;;;2078984;28;20225;-65
2024/01/06 01:24:56;;;;;;;2.70;1.57;;;;;17.90;99153.00;;;;2079927;28;20216;-65
2024/01/06 01:25:56;;;;;;;2.13;1.50;;;;;17.90;99150.00;;;;2077585;28;20217;-65
2024/01/06 01:26:56;;;;;;;2.13;1.30;;;;;17.90;99157.00;;;;2068931;28;20220;-65
2024/01/06 01:27:57;;;;;;;2.03;1.60;;;;;17.90;99159.00;;;;2069157;28;20262;-65
2024/01/06 01:28:57;;;;;;;2.00;1.30;;;;;17.90;99158.00;;;;2071225;28;20247;-65
2024/01/06 01:29:57;;;;;;;2.57;1.17;;;;;17.90;99162.00;;;;2072798;28;20247;-65
2024/01/06 01:30:58;;;;;;;2.53;1.37;;;;;17.90;99167.00;;;;2078463;28;20681;-65
2024/01/06 01:31:58;;;;;;;2.90;1.53;;;;;17.90;99161.00;;;;2062030;28;20213;-65
2024/01/06 01:32:58;;;;;;;2.60;1.70;;;;;17.90;99166.00;;;;2069817;28;20216;-65
2024/01/06 01:33:59;;;;;;;2.73;1.93;;;;;17.90;99164.00;;;;2079705;28;20216;-65
2024/01/06 01:34:59;;;;;;;2.60;1.90;;;;;17.90;99171.00;;;;2077648;28;20218;-65
2024/01/06 01:35:59;;;;;;;3.03;1.90;;;;;17.90;99175.00;;;;2078035;28;20212;-65
2024/01/06 01:37:00;;;;;;;2.80;1.73;;;;;17.90;99167.00;;;;2063747;28;20236;-65
2024/01/06 01:38:00;;;;;;;2.50;1.67;;;;;17.90;99178.00;;;;2069557;28;20220;-65
2024/01/06 01:39:00;;;;;;;2.27;1.60;;;;;17.90;99172.00;;;;2073462;28;20221;-65
2024/01/06 01:40:00;;;;;;;2.57;1.50;;;;;17.90;99172.00;;;;2075542;28;20219;-65
2024/01/06 01:41:01;;;;;;;2.10;1.60;;;;;17.90;99170.00;;;;2079808;28;20215;-65
2024/01/06 01:42:02;;;;;;;2.47;1.60;;;;;17.90;99176.00;;;;2067096;28;20220;-65
2024/01/06 01:43:02;;;;;;;2.97;1.97;;;;;17.90;99175.00;;;;2065650;28;20210;-65
2024/01/06 01:44:02;;;;;;;2.00;1.60;;;;;17.90;99173.00;;;;2073626;28;20472;-65
2024/01/06 01:45:04;;;;;;;2.70;1.80;;;;;17.90;99175.00;;;;2077071;28;20204;-65
2024/01/06 01:46:05;;;;;;;3.25;1.95;;;;;17.90;99183.00;;;;2077401;28;20216;-65
2024/01/06 01:47:05;;;;;;;2.23;1.60;;;;;17.90;99176.00;;;;2065456;28;20572;-65
2024/01/06 01:48:06;;;;;;;2.30;1.70;;;;;17.90;99173.00;;;;2072197;28;20681;-65
2024/01/06 01:49:07;;;;;;;2.22;1.35;;;;;17.90;99164.00;;;;2072042;28;20696;-65
2024/01/06 01:50:07;;;;;;;1.90;1.30;;;;;17.90;99189.00;;;;2068032;28;20268;-65
2024/01/06 01:51:08;;;;;;;3.50;1.57;;;;;17.80;99150.00;;;;2061189;28;20217;-65
2024/01/06 01:52:08;;;;;;;2.13;1.40;;;;;17.90;99185.00;;;;2068116;28;20209;-65
2024/01/06 01:53:08;;;;;;;2.10;1.47;;;;;17.90;99188.00;;;;2072421;28;20267;-65
2024/01/06 01:54:08;;;;;;;2.50;1.70;;;;;17.90;99189.00;;;;2063418;28;20246;-65
2024/01/06 01:55:09;;;;;;;2.10;1.40;;;;;17.90;99179.00;;;;2064229;28;20236;-65
2024/01/06 01:56:09;;;;;;;2.30;1.80;;;;;17.90;99178.00;;;;2065004;28;20240;-65
2024/01/06 01:57:10;;;;;;;3.10;1.60;;;;;17.80;99193.00;;;;2067920;28;20270;-65
2024/01/06 01:58:10;;;;;;;2.70;1.90;;;;;17.90;99183.00;;;;2075005;28;20208;-64
2024/01/06 01:59:12;;;;;;;2.63;1.77;;;;;17.90;99189.00;;;;2076208;28;21124;-64
2024/01/06 02:00:12;;;;;;;2.88;1.70;;;;;17.80;99190.00;;;;2075545;28;20234;-64
2024/01/06 02:01:13;;;;;;;2.90;1.60;;;;;17.90;99179.00;;;;2079203;28;20252;-64
2024/01/06 02:02:14;;;;;;;2.57;1.90;;;;;17.90;99188.00;;;;2071415;28;20478;-65
2024/01/06 02:03:15;;;;;;;3.60;1.70;;;;;17.90;99191.00;;;;2080348;28;20459;-65
2024/01/06 02:04:15;;;;;;;2.67;1.60;;;;;17.70;99193.00;;;;2074130;28;20236;-65
2024/01/06 02:05:15;;;;;;;1.90;1.37;;;;;17.80;99186.00;;;;2075888;28;20482;-65
2024/01/06 02:06:15;;;;;;;2.37;1.60;;;;;17.80;99196.00;;;;2076338;28;20692;-65
2024/01/06 02:07:16;;;;;;;2.67;1.90;;;;;17.80;99191.00;;;;2066912;28;20263;-65
2024/01/06 02:08:16;;;;;;;3.83;1.70;;;;;17.80;99188.00;;;;2080025;28;20223;-65
2024/01/06 02:09:16;;;;;;;2.40;1.53;;;;;17.80;99192.00;;;;2075395;28;20216;-65
2024/01/06 02:10:17;;;;;;;3.40;2.03;;;;;17.80;99184.00;;;;2075656;28;20249;-65
2024/01/06 02:11:18;;;;;;;2.15;1.45;;;;;17.80;99194.00;;;;2080209;28;20223;-65
2024/01/06 02:12:18;;;;;;;2.27;1.50;;;;;17.80;99188.00;;;;2066739;28;20302;-65
2024/01/06 02:13:19;;;;;;;2.60;1.80;;;;;17.80;99194.00;;;;2073796;28;20782;-65
2024/01/06 02:14:19;;;;;;;4.67;1.77;;;;;17.80;99185.00;;;;2073223;28;20658;-65
2024/01/06 02:15:19;;;;;;;2.17;1.50;;;;;17.80;99179.00;;;;2079987;28;20215;-65
2024/01/06 02:16:20;;;;;;;2.50;1.70;;;;;17.80;99197.00;;;;2076097;28;20230;-65
2024/01/06 02:17:20;;;;;;;3.07;1.80;;;;;17.80;99191.00;;;;2066274;28;20238;-65
2024/01/06 02:18:20;;;;;;;2.23;1.60;;;;;17.80;99198.00;;;;2078905;28;20259;-65
2024/01/06 02:19:20;;;;;;;2.30;1.83;;;;;17.80;99209.00;;;;2081124;28;20701;-65
2024/01/06 02:20:23;;;;;;;2.27;1.63;;;;;17.80;99197.00;;;;2078825;28;20220;-65
2024/01/06 02:21:23;;;;;;;2.40;1.80;;;;;17.80;99198.00;;;;2075720;28;20602;-65
2024/01/06 02:22:24;;;;;;;2.60;1.50;;;;;17.80;99190.00;;;;2062797;28;20963;-65
2024/01/06 02:23:24;;;;;;;2.40;1.67;;;;;17.80;99197.00;;;;2080944;28;20223;-65
2024/01/06 02:24:24;;;;;;;2.83;2.00;;;;;17.80;99198.00;;;;2080292;28;20691;-65
2024/01/06 02:25:25;;;;;;;3.10;1.90;;;;;17.80;99193.00;;;;2079395;28;20285;-65
2024/01/06 02:26:25;;;;;;;2.33;1.73;;;;;17.80;99204.00;;;;2081055;28;20227;-65
2024/01/06 02:27:26;;;;;;;2.90;1.77;;;;;17.80;99203.00;;;;2069660;28;20316;-65
2024/01/06 02:28:26;;;;;;;2.90;1.90;;;;;17.80;99202.00;;;;2076225;28;20243;-65
2024/01/06 02:29:26;;;;;;;2.13;1.57;;;;;17.80;99193.00;;;;2076953;28;20246;-65
2024/01/06 02:30:26;;;;;;;2.30;1.77;;;;;17.80;99205.00;;;;2081005;28;20215;-65
2024/01/06 02:31:29;;;;;;;2.50;1.90;;;;;17.80;99209.00;;;;2080652;28;20222;-65
2024/01/06 02:32:29;;;;;;;2.72;1.80;;;;;17.80;99199.00;;;;2074023;28;20327;-65
2024/01/06 02:33:30;;;;;;;3.10;1.97;;;;;17.80;99201.00;;;;2075718;28;20243;-65
2024/01/06 02:34:32;;;;;;;3.13;1.90;;;;;17.80;99208.00;;;;2080168;28;20222;-65
2024/01/06 02:35:32;;;;;;;3.72;2.22;;;;;17.80;99210.00;;;;2080998;28;20218;-65
2024/01/06 02:36:33;;;;;;;3.10;2.00;;;;;17.80;99210.00;;;;2080248;28;20257;-65
2024/01/06 02:37:33;;;;;;;2.73;2.10;;;;;17.80;99214.00;;;;2068967;28;20218;-65
2024/01/06 02:38:33;;;;;;;3.47;2.37;;;;;17.80;99222.00;;;;2079701;28;20232;-65
2024/01/06 02:39:34;;;;;;;2.60;2.00;;;;;17.80;99216.00;;;;2079555;28;20212;-65
2024/01/06 02:40:34;;;;;;;2.53;1.70;;;;;17.80;99223.00;;;;2080850;28;20250;-65
2024/01/06 02:41:34;;;;;;;3.70;2.20;;;;;17.80;99227.00;;;;2079168;28;20211;-65
2024/01/06 02:42:35;;;;;;;2.60;2.00;;;;;17.80;99225.00;;;;2068963;28;20234;-65
2024/01/06 02:43:35;;;;;;;2.50;1.77;;;;;17.80;99231.00;;;;2073891;28;20246;-65
2024/01/06 02:44:35;;;;;;;2.83;2.10;;;;;17.80;99229.00;;;;2080697;28;20218;-65
2024/01/06 02:45:36;;;;;;;2.40;1.87;;;;;17.80;99226.00;;;;2079981;28;20215;-65
2024/01/06 02:46:36;;;;;;;2.73;2.07;;;;;17.80;99230.00;;;;2083297;28;20220;-65
2024/01/06 02:47:36;;;;;;;2.37;1.90;;;;;17.80;99231.00;;;;2072930;28;20226;-65
2024/01/06 02:48:37;;;;;;;3.00;1.90;;;;;17.80;99229.00;;;;2076184;28;20224;-65
2024/01/06 02:49:37;;;;;;;2.77;2.30;;;;;17.80;99235.00;;;;2080113;28;20219;-65
2024/01/06 02:50:37;;;;;;;2.50;1.70;;;;;17.80;99234.00;;;;2076795;28;20284;-65
2024/01/06 02:51:43;;;;;;;2.60;1.90;;;;;17.80;99234.00;;;;2080666;28;20211;-65
2024/01/06 02:52:45;;;;;;;3.15;2.10;;;;;17.80;99231.00;;;;2070060;28;20234;-65
2024/01/06 02:53:45;;;;;;;3.22;2.50;;;;;17.80;99246.00;;;;2078292;28;20223;-65
2024/01/06 02:54:45;;;;;;;3.30;2.43;;;;;17.80;99235.00;;;;2080115;28;20246;-65
2024/01/06 02:55:46;;;;;;;2.80;2.00;;;;;17.80;99238.00;;;;2080760;28;20216;-65
2024/01/06 02:56:46;;;;;;;2.30;1.90;;;;;17.80;99244.00;;;;2080708;28;20207;-65
2024/01/06 02:57:46;;;;;;;3.60;2.30;;;;;17.80;99239.00;;;;2069110;28;20251;-65
2024/01/06 02:58:46;;;;;;;2.53;2.17;;;;;17.80;99252.00;;;;2080027;28;20302;-65
2024/01/06 02:59:47;;;;;;;3.00;1.90;;;;;17.80;99246.00;;;;2079411;28;20235;-65
2024/01/06 03:00:47;;;;;;;3.40;2.57;;;;;17.80;99252.00;;;;2078052;28;20224;-65
2024/01/06 03:01:47;;;;;;;4.67;2.17;;;;;17.80;99258.00;;;;2079146;28;20222;-65
2024/01/06 03:02:48;;;;;;;2.40;1.80;;;;;17.80;99251.00;;;;2068790;28;20687;-65
2024/01/06 03:03:48;;;;;;;2.70;2.00;;;;;17.80;99257.00;;;;2078524;28;20242;-65
2024/01/06 03:04:48;;;;;;;3.40;2.13;;;;;17.80;99254.00;;;;2085153;28;20221;-65
2024/01/06 03:05:49;;;;;;;3.77;2.57;;;;;17.80;99255.00;;;;2081563;28;20250;-65
2024/01/06 03:06:53;;;;;;;2.83;1.93;;;;;17.80;99257.00;;;;2081381;28;20245;-65
2024/01/06 03:07:53;;;;;;;2.75;2.15;;;;;17.80;99261.00;;;;2070290;28;20617;-65
2024/01/06 03:08:53;;;;;;;2.77;2.20;;;;;17.80;99262.00;;;;2078114;28;20247;-65
2024/01/06 03:09:54;;;;;;;2.60;1.97;;;;;17.80;99261.00;;;;2088336;28;20216;-65
2024/01/06 03:10:54;;;;;;;3.00;2.40;;;;;17.80;99267.00;;;;2078790;28;20250;-65
2024/01/06 03:11:54;;;;;;;3.00;2.30;;;;;17.80;99269.00;;;;2084178;28;20230;-65
2024/01/06 03:12:55;;;;;;;3.00;1.97;;;;;17.80;99265.00;;;;2069552;28;20229;-65
2024/01/06 03:13:55;;;;;;;3.33;2.50;;;;;17.80;99264.00;;;;2080428;28;20261;-65
2024/01/06 03:14:55;;;;;;;3.40;2.10;;;;;17.70;99268.00;;;;2080117;28;20232;-65
2024/01/06 03:15:56;;;;;;;3.67;2.20;;;;;17.60;99263.00;;;;2080685;28;20247;-65
2024/01/06 03:16:57;;;;;;;2.97;2.33;;;;;17.80;99267.00;;;;2073066;28;20281;-65
2024/01/06 03:17:57;;;;;;;2.97;2.20;;;;;17.80;99272.00;;;;2096221;28;20607;-65
2024/01/06 03:18:57;;;;;;;3.23;2.20;;;;;17.80;99271.00;;;;2086451;28;20243;-65
2024/01/06 03:19:58;;;;;;;2.63;2.13;;;;;17.80;99270.00;;;;2080600;28;20222;-65
2024/01/06 03:20:58;;;;;;;2.47;1.93;;;;;17.80;99268.00;;;;2080836;28;20234;-65
2024/01/06 03:21:58;;;;;;;3.77;2.10;;;;;17.80;99269.00;;;;2068967;28;20209;-65
2024/01/06 03:22:58;;;;;;;2.90;2.10;;;;;17.80;99280.00;;;;2080328;28;20269;-65
2024/01/06 03:23:59;;;;;;;4.40;2.77;;;;;17.70;99268.00;;;;2079241;28;20216;-65
2024/01/06 03:25:00;;;;;;;3.07;2.47;;;;;17.70;99271.00;;;;2080470;28;20233;-65
2024/01/06 03:26:05;;;;;;;2.93;2.50;;;;;17.70;99271.00;;;;2078145;28;20268;-65
2024/01/06 03:27:06;;;;;;;2.80;2.03;;;;;17.70;99270.00;;;;2070802;28;20212;-65
2024/01/06 03:28:06;;;;;;;2.80;2.13;;;;;17.70;99272.00;;;;2079221;28;20212;-65
2024/01/06 03:29:06;;;;;;;3.60;2.50;;;;;17.70;99279.00;;;;2078315;28;20218;-65
2024/01/06 03:30:07;;;;;;;3.77;2.30;;;;;17.70;99277.00;;;;2079580;28;20199;-65
2024/01/06 03:31:07;;;;;;;2.87;1.83;;;;;17.80;99279.00;;;;2087000;28;20218;-65
2024/01/06 03:32:08;;;;;;;3.00;2.63;;;;;17.70;99285.00;;;;2070426;28;20212;-65
2024/01/06 03:33:08;;;;;;;2.70;2.20;;;;;17.70;99289.00;;;;2078531;28;20208;-65
2024/01/06 03:34:09;;;;;;;4.33;2.67;;;;;17.70;99284.00;;;;2080153;28;20204;-65
2024/01/06 03:35:09;;;;;;;2.70;2.23;;;;;17.70;99284.00;;;;2079683;28;20266;-65
2024/01/06 03:36:09;;;;;;;2.50;2.30;;;;;17.70;99290.00;;;;2080383;28;20220;-65
2024/01/06 03:37:10;;;;;;;2.80;2.00;;;;;17.70;99292.00;;;;2069560;28;20578;-65
2024/01/06 03:38:10;;;;;;;3.10;2.33;;;;;17.70;99304.00;;;;2080364;28;20211;-65
2024/01/06 03:39:10;;;;;;;3.13;2.30;;;;;17.70;99291.00;;;;2080544;28;20237;-65
2024/01/06 03:40:11;;;;;;;3.40;2.63;;;;;17.70;99293.00;;;;2083902;28;20227;-65
2024/01/06 03:41:11;;;;;;;2.73;2.07;;;;;17.70;99295.00;;;;2080543;28;20245;-65
2024/01/06 03:42:12;;;;;;;2.43;1.97;;;;;17.70;99298.00;;;;2069603;28;20513;-65
2024/01/06 03:43:12;;;;;;;3.10;2.40;;;;;17.70;99304.00;;;;2079741;28;20265;-65
2024/01/06 03:44:12;;;;;;;2.77;2.17;;;;;17.70;99305.00;;;;2077524;28;20214;-65
2024/01/06 03:45:13;;;;;;;3.07;2.37;;;;;17.70;99306.00;;;;2080167;28;20215;-65
2024/01/06 03:46:13;;;;;;;3.00;2.50;;;;;17.70;99315.00;;;;2079301;28;20207;-65
2024/01/06 03:47:13;;;;;;;2.70;2.20;;;;;17.70;99308.00;;;;2065820;28;21043;-65
2024/01/06 03:48:14;;;;;;;3.03;2.60;;;;;17.70;99313.00;;;;2080395;28;20719;-65
2024/01/06 03:49:14;;;;;;;3.63;2.60;;;;;17.70;99309.00;;;;2078603;28;20234;-65
2024/01/06 03:50:15;;;;;;;3.13;2.40;;;;;17.70;99310.00;;;;2080436;28;20586;-65
2024/01/06 03:51:15;;;;;;;2.80;2.40;;;;;17.70;99315.00;;;;2079803;28;20299;-65
2024/01/06 03:52:15;;;;;;;3.57;2.60;;;;;17.70;99311.00;;;;2074747;28;20219;-65
2024/01/06 03:53:15;;;;;;;3.63;2.43;;;;;17.70;99320.00;;;;2078612;28;20216;-65
2024/01/06 03:54:16;;;;;;;3.40;2.30;;;;;17.70;99319.00;;;;2079582;28;20208;-65
2024/01/06 03:55:16;;;;;;;3.27;2.30;;;;;17.70;99326.00;;;;2078006;28;20217;-65
2024/01/06 03:56:17;;;;;;;2.70;2.20;;;;;17.70;99320.00;;;;2070692;28;20583;-65
2024/01/06 03:57:17;;;;;;;3.33;2.47;;;;;17.70;99320.00;;;;2069423;28;20707;-65
2024/01/06 03:58:17;;;;;;;2.90;2.20;;;;;17.70;99330.00;;;;2078342;28;20223;-65
2024/01/06 03:59:18;;;;;;;3.17;2.50;;;;;17.70;99328.00;;;;2079168;28;20235;-65
2024/01/06 04:00:18;;;;;;;3.17;2.27;;;;;17.70;99335.00;;;;2080210;28;20325;-65
2024/01/06 04:01:18;;;;;;;3.00;2.30;;;;;17.70;99334.00;;;;2077896;28;20716;-64
2024/01/06 04:02:19;;;;;;;3.50;2.63;;;;;17.70;99333.00;;;;2069142;28;20226;-64
2024/01/06 04:03:19;;;;;;;2.80;2.20;;;;;17.70;99332.00;;;;2079717;28;20215;-64
2024/01/06 04:04:19;;;;;;;3.23;2.20;;;;;17.70;99333.00;;;;2082823;28;20209;-64
2024/01/06 04:05:20;;;;;;;2.87;2.30;;;;;17.70;99335.00;;;;2079713;28;20211;-64
2024/01/06 04:06:20;;;;;;;3.07;2.30;;;;;17.70;99339.00;;;;2077986;28;20245;-64
2024/01/06 04:07:21;;;;;;;2.87;2.23;;;;;17.70;99339.00;;;;2069397;28;20225;-64
2024/01/06 04:08:21;;;;;;;2.80;2.20;;;;;17.70;99338.00;;;;2076729;28;20277;-64
2024/01/06 04:09:21;;;;;;;3.40;2.27;;;;;17.70;99333.00;;;;2080244;28;20220;-64
2024/01/06 04:10:21;;;;;;;2.70;2.10;;;;;17.70;99343.00;;;;2078112;28;20213;-64
2024/01/06 04:11:22;;;;;;;3.33;2.23;;;;;17.70;99336.00;;;;2079825;28;20215;-64
2024/01/06 04:12:22;;;;;;;2.80;2.30;;;;;17.70;99338.00;;;;2069021;28;20585;-64
2024/01/06 04:13:24;;;;;;;3.47;2.20;;;;;17.70;99332.00;;;;2081873;28;20581;-64
2024/01/06 04:14:24;;;;;;;3.70;2.35;;;;;17.70;99335.00;;;;2080079;28;20569;-64
2024/01/06 04:15:25;;;;;;;3.60;2.60;;;;;17.70;99330.00;;;;2078849;28;20223;-64
2024/01/06 04:16:27;;;;;;;3.20;2.50;;;;;17.70;99336.00;;;;2080260;28;20229;-64
2024/01/06 04:17:27;;;;;;;3.40;2.40;;;;;17.70;99333.00;;;;2068507;28;20219;-64
2024/01/06 04:18:27;;;;;;;3.77;2.60;;;;;17.70;99336.00;;;;2084483;28;20220;-64
2024/01/06 04:19:28;;;;;;;2.80;2.27;;;;;17.70;99334.00;;;;2080164;28;20234;-64
2024/01/06 04:20:28;;;;;;;3.37;2.47;;;;;17.70;99338.00;;;;2080157;28;20241;-65
2024/01/06 04:21:28;;;;;;;2.87;2.20;;;;;17.70;99335.00;;;;2079507;28;20220;-65
2024/01/06 04:22:29;;;;;;;2.37;1.90;;;;;17.70;99342.00;;;;2072519;28;20218;-65
2024/01/06 04:23:29;;;;;;;2.87;2.20;;;;;17.70;99334.00;;;;2083366;28;20219;-65
2024/01/06 04:24:30;;;;;;;3.20;2.47;;;;;17.70;99341.00;;;;2078915;28;20216;-65
2024/01/06 04:25:30;;;;;;;2.97;2.10;;;;;17.70;99336.00;;;;2080098;28;20282;-65
2024/01/06 04:26:30;;;;;;;2.90;1.90;;;;;17.70;99329.00;;;;2080301;28;20215;-65
2024/01/06 04:27:33;;;;;;;2.60;2.10;;;;;17.70;99346.00;;;;2067243;28;20235;-65
2024/01/06 04:28:34;;;;;;;2.65;2.25;;;;;17.70;99338.00;;;;2079880;28;20329;-65
2024/01/06 04:29:34;;;;;;;2.80;2.03;;;;;17.70;99334.00;;;;2082690;28;20276;-67
2024/01/06 04:30:34;;;;;;;2.70;2.20;;;;;17.70;99330.00;;;;2083963;28;20244;-65
2024/01/06 04:31:35;;;;;;;2.80;2.10;;;;;17.70;99336.00;;;;2079294;28;20276;-65
2024/01/06 04:32:35;;;;;;;3.10;2.27;;;;;17.70;99343.00;;;;2073467;28;20282;-65
2024/01/06 04:33:36;;;;;;;2.10;1.70;;;;;17.70;99340.00;;;;2090274;28;20570;-64
2024/01/06 04:34:37;;;;;;;3.10;1.80;;;;;17.70;99337.00;;;;2079723;28;20254;-64
2024/01/06 04:35:37;;;;;;;3.10;1.97;;;;;17.70;99337.00;;;;2079602;28;20474;-65
2024/01/06 04:36:37;;;;;;;3.70;2.47;;;;;17.60;99339.00;;;;2083113;28;20213;-65
2024/01/06 04:37:37;;;;;;;3.00;2.33;;;;;17.60;99338.00;;;;2073329;28;20258;-65
2024/01/06 04:38:38;;;;;;;3.20;2.33;;;;;17.70;99347.00;;;;2079952;28;20215;-65
2024/01/06 04:39:38;;;;;;;3.23;2.43;;;;;17.60;99336.00;;;;2083649;28;20220;-65
2024/01/06 04:40:38;;;;;;;2.50;1.90;;;;;17.70;99347.00;;;;2080061;28;20219;-65
2024/01/06 04:41:40;;;;;;;3.60;2.17;;;;;17.70;99347.00;;;;2078728;28;20285;-65
2024/01/06 04:42:40;;;;;;;2.80;1.98;;;;;17.70;99344.00;;;;2070130;28;20222;-65
2024/01/06 04:43:40;;;;;;;3.03;2.20;;;;;17.70;99351.00;;;;2082065;28;20223;-65
2024/01/06 04:44:41;;;;;;;2.80;1.90;;;;;17.60;99347.00;;;;2082897;28;20215;-65
2024/01/06 04:45:41;;;;;;;3.50;2.47;;;;;17.60;99343.00;;;;2077969;28;20237;-64
2024/01/06 04:46:41;;;;;;;2.87;2.27;;;;;17.70;99344.00;;;;2079338;28;20223;-64
2024/01/06 04:47:42;;;;;;;2.60;2.00;;;;;17.60;99339.00;;;;2069806;28;20230;-64
2024/01/06 04:48:43;;;;;;;2.70;1.80;;;;;17.60;99347.00;;;;2079438;28;20249;-64
2024/01/06 04:49:44;;;;;;;2.58;2.08;;;;;17.60;99345.00;;;;2079901;28;20215;-64
2024/01/06 04:50:44;;;;;;;3.30;2.20;;;;;17.60;99342.00;;;;2080884;28;20217;-64
2024/01/06 04:51:44;;;;;;;2.97;1.77;;;;;17.70;99355.00;;;;2070521;28;20627;-65
2024/01/06 04:52:45;;;;;;;2.37;1.67;;;;;17.70;99346.00;;;;2064603;28;20290;-65
2024/01/06 04:53:45;;;;;;;2.97;1.83;;;;;17.60;99342.00;;;;2077427;28;20215;-65
2024/01/06 04:54:45;;;;;;;3.13;2.00;;;;;17.60;99343.00;;;;2079947;28;20221;-65
2024/01/06 04:55:46;;;;;;;2.63;1.93;;;;;17.60;99350.00;;;;2079130;28;20230;-65
2024/01/06 04:56:46;;;;;;;3.63;2.40;;;;;17.60;99356.00;;;;2079631;28;20217;-65
2024/01/06 04:57:48;;;;;;;2.70;1.87;;;;;17.60;99319.00;;;;2069237;28;20238;-65
2024/01/06 04:58:49;;;;;;;3.10;2.08;;;;;17.60;99347.00;;;;2079933;28;20210;-65
2024/01/06 04:59:49;;;;;;;3.37;2.40;;;;;17.60;99346.00;;;;2078529;28;20269;-65
2024/01/06 05:00:51;;;;;;;2.73;1.67;;;;;17.60;99349.00;;;;2079505;28;20214;-65
2024/01/06 05:01:51;;;;;;;2.80;2.08;;;;;17.60;99350.00;;;;2079773;28;20209;-65
2024/01/06 05:02:52;;;;;;;2.63;1.93;;;;;17.60;99351.00;;;;2071675;28;20792;-65